sensor_id;sensor_type;location;lat;lon;timestamp;P1;durP1;ratioP1;P2;durP2;ratioP2
11681;SDS011;5897;42.640;23.310;2023-12-28T00:00:42;7.45;;;5.65;;
11681;SDS011;5897;42.640;23.310;2023-12-28T00:03:11;9.25;;;6.55;;
11681;SDS011;5897;42.640;23.310;2023-12-28T00:05:41;10.50;;;6.32;;
11681;SDS011;5897;42.640;23.310;2023-12-28T00:08:15;12.27;;;8.32;;
11681;SDS011;5897;42.640;23.310;2023-12-28T00:10:46;12.77;;;8.65;;
11681;SDS011;5897;42.640;23.310;2023-12-28T00:13:15;11.40;;;7.97;;
11681;SDS011;5897;42.640;23.310;2023-12-28T00:15:42;7.28;;;5.93;;
11681;SDS011;5897;42.640;23.310;2023-12-28T00:18:12;8.30;;;6.55;;
11681;SDS011;5897;42.640;23.310;2023-12-28T00:20:39;7.95;;;5.30;;
11681;SDS011;5897;42.640;23.310;2023-12-28T00:23:05;8.38;;;5.15;;
11681;SDS011;5897;42.640;23.310;2023-12-28T00:25:41;7.57;;;5.05;;
11681;SDS011;5897;42.640;23.310;2023-12-28T00:28:10;5.88;;;4.40;;
11681;SDS011;5897;42.640;23.310;2023-12-28T00:30:39;6.03;;;4.88;;
11681;SDS011;5897;42.640;23.310;2023-12-28T00:33:06;8.98;;;6.07;;
11681;SDS011;5897;42.640;23.310;2023-12-28T00:35:32;8.77;;;6.20;;
11681;SDS011;5897;42.640;23.310;2023-12-28T00:37:59;8.82;;;6.50;;
11681;SDS011;5897;42.640;23.310;2023-12-28T00:40:26;8.68;;;6.68;;
11681;SDS011;5897;42.640;23.310;2023-12-28T00:42:54;7.25;;;6.13;;
11681;SDS011;5897;42.640;23.310;2023-12-28T00:45:21;7.95;;;6.28;;
11681;SDS011;5897;42.640;23.310;2023-12-28T00:47:47;9.25;;;6.70;;
11681;SDS011;5897;42.640;23.310;2023-12-28T00:50:15;10.70;;;7.72;;
11681;SDS011;5897;42.640;23.310;2023-12-28T00:52:44;12.25;;;7.82;;
11681;SDS011;5897;42.640;23.310;2023-12-28T00:55:13;12.02;;;8.95;;
11681;SDS011;5897;42.640;23.310;2023-12-28T00:57:40;12.93;;;9.40;;
11681;SDS011;5897;42.640;23.310;2023-12-28T01:00:14;12.35;;;9.45;;
11681;SDS011;5897;42.640;23.310;2023-12-28T01:02:40;12.00;;;9.63;;
11681;SDS011;5897;42.640;23.310;2023-12-28T01:05:12;12.60;;;8.90;;
11681;SDS011;5897;42.640;23.310;2023-12-28T01:07:38;13.68;;;9.38;;
11681;SDS011;5897;42.640;23.310;2023-12-28T01:10:05;11.93;;;10.05;;
11681;SDS011;5897;42.640;23.310;2023-12-28T01:12:36;10.20;;;8.68;;
11681;SDS011;5897;42.640;23.310;2023-12-28T01:15:09;12.73;;;8.82;;
11681;SDS011;5897;42.640;23.310;2023-12-28T01:17:37;11.38;;;7.70;;
11681;SDS011;5897;42.640;23.310;2023-12-28T01:20:04;9.13;;;7.60;;
11681;SDS011;5897;42.640;23.310;2023-12-28T01:22:36;8.80;;;7.25;;
11681;SDS011;5897;42.640;23.310;2023-12-28T01:25:08;9.85;;;7.80;;
11681;SDS011;5897;42.640;23.310;2023-12-28T01:27:34;12.18;;;8.88;;
11681;SDS011;5897;42.640;23.310;2023-12-28T01:30:01;14.27;;;8.48;;
11681;SDS011;5897;42.640;23.310;2023-12-28T01:32:33;9.13;;;7.97;;
11681;SDS011;5897;42.640;23.310;2023-12-28T01:35:01;11.70;;;9.05;;
11681;SDS011;5897;42.640;23.310;2023-12-28T01:37:28;10.52;;;8.05;;
11681;SDS011;5897;42.640;23.310;2023-12-28T01:39:58;11.18;;;7.20;;
11681;SDS011;5897;42.640;23.310;2023-12-28T01:42:25;7.50;;;6.15;;
11681;SDS011;5897;42.640;23.310;2023-12-28T01:44:55;7.55;;;5.75;;
11681;SDS011;5897;42.640;23.310;2023-12-28T01:47:24;5.47;;;4.82;;
11681;SDS011;5897;42.640;23.310;2023-12-28T01:49:53;5.50;;;4.40;;
11681;SDS011;5897;42.640;23.310;2023-12-28T01:52:21;6.23;;;5.30;;
11681;SDS011;5897;42.640;23.310;2023-12-28T01:54:48;6.97;;;4.97;;
11681;SDS011;5897;42.640;23.310;2023-12-28T01:57:15;6.32;;;4.32;;
11681;SDS011;5897;42.640;23.310;2023-12-28T01:59:44;4.38;;;3.78;;
11681;SDS011;5897;42.640;23.310;2023-12-28T02:02:15;6.13;;;3.75;;
11681;SDS011;5897;42.640;23.310;2023-12-28T02:04:43;6.38;;;4.70;;
11681;SDS011;5897;42.640;23.310;2023-12-28T02:07:14;6.20;;;4.40;;
11681;SDS011;5897;42.640;23.310;2023-12-28T02:09:42;8.30;;;4.35;;
11681;SDS011;5897;42.640;23.310;2023-12-28T02:12:09;5.93;;;4.35;;
11681;SDS011;5897;42.640;23.310;2023-12-28T02:14:35;7.05;;;5.20;;
11681;SDS011;5897;42.640;23.310;2023-12-28T02:17:03;8.82;;;5.60;;
11681;SDS011;5897;42.640;23.310;2023-12-28T02:19:45;9.40;;;7.18;;
11681;SDS011;5897;42.640;23.310;2023-12-28T02:22:16;9.27;;;7.38;;
11681;SDS011;5897;42.640;23.310;2023-12-28T02:24:55;9.10;;;7.40;;
11681;SDS011;5897;42.640;23.310;2023-12-28T02:27:40;9.55;;;6.60;;
11681;SDS011;5897;42.640;23.310;2023-12-28T02:30:12;19.23;;;10.15;;
11681;SDS011;5897;42.640;23.310;2023-12-28T02:32:55;16.77;;;9.70;;
11681;SDS011;5897;42.640;23.310;2023-12-28T02:35:40;7.00;;;4.38;;
11681;SDS011;5897;42.640;23.310;2023-12-28T02:38:09;7.88;;;4.90;;
11681;SDS011;5897;42.640;23.310;2023-12-28T02:40:42;10.48;;;5.80;;
11681;SDS011;5897;42.640;23.310;2023-12-28T02:43:10;10.40;;;6.00;;
11681;SDS011;5897;42.640;23.310;2023-12-28T02:45:40;8.27;;;5.82;;
11681;SDS011;5897;42.640;23.310;2023-12-28T02:48:15;10.07;;;6.15;;
11681;SDS011;5897;42.640;23.310;2023-12-28T02:50:47;8.18;;;6.43;;
11681;SDS011;5897;42.640;23.310;2023-12-28T02:53:29;10.82;;;7.43;;
11681;SDS011;5897;42.640;23.310;2023-12-28T02:56:02;8.82;;;7.15;;
11681;SDS011;5897;42.640;23.310;2023-12-28T02:58:31;10.80;;;7.45;;
11681;SDS011;5897;42.640;23.310;2023-12-28T03:00:59;8.45;;;7.05;;
11681;SDS011;5897;42.640;23.310;2023-12-28T03:03:26;9.35;;;7.38;;
11681;SDS011;5897;42.640;23.310;2023-12-28T03:05:55;12.40;;;7.88;;
11681;SDS011;5897;42.640;23.310;2023-12-28T03:08:22;9.27;;;7.28;;
11681;SDS011;5897;42.640;23.310;2023-12-28T03:10:49;12.00;;;7.88;;
11681;SDS011;5897;42.640;23.310;2023-12-28T03:13:17;12.07;;;7.80;;
11681;SDS011;5897;42.640;23.310;2023-12-28T03:15:43;12.60;;;8.70;;
11681;SDS011;5897;42.640;23.310;2023-12-28T03:18:27;14.32;;;10.68;;
11681;SDS011;5897;42.640;23.310;2023-12-28T03:20:55;15.13;;;11.13;;
11681;SDS011;5897;42.640;23.310;2023-12-28T03:23:27;14.23;;;10.68;;
11681;SDS011;5897;42.640;23.310;2023-12-28T03:25:55;12.80;;;9.18;;
11681;SDS011;5897;42.640;23.310;2023-12-28T03:28:28;12.55;;;9.30;;
11681;SDS011;5897;42.640;23.310;2023-12-28T03:30:54;14.27;;;10.20;;
11681;SDS011;5897;42.640;23.310;2023-12-28T03:33:22;16.70;;;11.38;;
11681;SDS011;5897;42.640;23.310;2023-12-28T03:35:51;15.77;;;10.60;;
11681;SDS011;5897;42.640;23.310;2023-12-28T03:38:18;15.25;;;11.38;;
11681;SDS011;5897;42.640;23.310;2023-12-28T03:40:44;13.02;;;10.43;;
11681;SDS011;5897;42.640;23.310;2023-12-28T03:43:13;13.82;;;10.90;;
11681;SDS011;5897;42.640;23.310;2023-12-28T03:45:41;17.50;;;11.90;;
11681;SDS011;5897;42.640;23.310;2023-12-28T03:48:15;18.42;;;12.60;;
11681;SDS011;5897;42.640;23.310;2023-12-28T03:50:41;21.38;;;13.77;;
11681;SDS011;5897;42.640;23.310;2023-12-28T03:53:08;19.38;;;13.20;;
11681;SDS011;5897;42.640;23.310;2023-12-28T03:55:34;18.00;;;13.27;;
11681;SDS011;5897;42.640;23.310;2023-12-28T03:58:01;21.02;;;14.82;;
11681;SDS011;5897;42.640;23.310;2023-12-28T04:00:33;20.92;;;14.75;;
11681;SDS011;5897;42.640;23.310;2023-12-28T04:03:05;22.10;;;15.38;;
11681;SDS011;5897;42.640;23.310;2023-12-28T04:05:32;19.85;;;14.30;;
11681;SDS011;5897;42.640;23.310;2023-12-28T04:08:01;17.17;;;13.25;;
11681;SDS011;5897;42.640;23.310;2023-12-28T04:10:31;13.57;;;11.25;;
11681;SDS011;5897;42.640;23.310;2023-12-28T04:13:06;16.63;;;12.33;;
11681;SDS011;5897;42.640;23.310;2023-12-28T04:15:41;10.93;;;8.90;;
11681;SDS011;5897;42.640;23.310;2023-12-28T04:18:09;9.98;;;8.13;;
11681;SDS011;5897;42.640;23.310;2023-12-28T04:20:35;10.93;;;7.80;;
11681;SDS011;5897;42.640;23.310;2023-12-28T04:23:05;8.63;;;6.97;;
11681;SDS011;5897;42.640;23.310;2023-12-28T04:25:32;9.18;;;7.07;;
11681;SDS011;5897;42.640;23.310;2023-12-28T04:28:01;9.00;;;6.53;;
11681;SDS011;5897;42.640;23.310;2023-12-28T04:30:36;13.75;;;9.90;;
11681;SDS011;5897;42.640;23.310;2023-12-28T04:33:04;15.68;;;11.27;;
11681;SDS011;5897;42.640;23.310;2023-12-28T04:35:35;20.30;;;12.07;;
11681;SDS011;5897;42.640;23.310;2023-12-28T04:38:04;17.33;;;13.60;;
11681;SDS011;5897;42.640;23.310;2023-12-28T04:40:31;18.90;;;13.47;;
11681;SDS011;5897;42.640;23.310;2023-12-28T04:42:58;19.73;;;14.30;;
11681;SDS011;5897;42.640;23.310;2023-12-28T04:45:28;24.48;;;16.70;;
11681;SDS011;5897;42.640;23.310;2023-12-28T04:47:56;18.25;;;12.13;;
11681;SDS011;5897;42.640;23.310;2023-12-28T04:50:24;13.20;;;10.00;;
11681;SDS011;5897;42.640;23.310;2023-12-28T04:52:56;12.37;;;8.63;;
11681;SDS011;5897;42.640;23.310;2023-12-28T04:55:25;11.27;;;7.47;;
11681;SDS011;5897;42.640;23.310;2023-12-28T04:58:00;8.80;;;6.90;;
11681;SDS011;5897;42.640;23.310;2023-12-28T05:00:36;10.60;;;7.40;;
11681;SDS011;5897;42.640;23.310;2023-12-28T05:03:08;9.87;;;7.30;;
11681;SDS011;5897;42.640;23.310;2023-12-28T05:05:39;8.02;;;6.63;;
11681;SDS011;5897;42.640;23.310;2023-12-28T05:08:08;8.45;;;5.75;;
11681;SDS011;5897;42.640;23.310;2023-12-28T05:10:35;8.30;;;6.23;;
11681;SDS011;5897;42.640;23.310;2023-12-28T05:13:10;7.27;;;5.90;;
11681;SDS011;5897;42.640;23.310;2023-12-28T05:15:37;6.70;;;5.20;;
11681;SDS011;5897;42.640;23.310;2023-12-28T05:18:04;6.10;;;4.57;;
11681;SDS011;5897;42.640;23.310;2023-12-28T05:20:34;5.27;;;4.10;;
11681;SDS011;5897;42.640;23.310;2023-12-28T05:23:02;5.03;;;3.88;;
11681;SDS011;5897;42.640;23.310;2023-12-28T05:25:28;6.95;;;3.97;;
11681;SDS011;5897;42.640;23.310;2023-12-28T05:27:55;4.30;;;3.67;;
11681;SDS011;5897;42.640;23.310;2023-12-28T05:30:22;3.90;;;3.13;;
11681;SDS011;5897;42.640;23.310;2023-12-28T05:32:51;7.30;;;3.17;;
11681;SDS011;5897;42.640;23.310;2023-12-28T05:35:19;7.47;;;5.97;;
11681;SDS011;5897;42.640;23.310;2023-12-28T05:37:49;8.60;;;6.43;;
11681;SDS011;5897;42.640;23.310;2023-12-28T05:40:19;7.07;;;5.88;;
11681;SDS011;5897;42.640;23.310;2023-12-28T05:42:46;9.32;;;6.80;;
11681;SDS011;5897;42.640;23.310;2023-12-28T05:45:15;9.87;;;7.27;;
11681;SDS011;5897;42.640;23.310;2023-12-28T05:47:45;8.90;;;7.20;;
11681;SDS011;5897;42.640;23.310;2023-12-28T05:50:13;8.85;;;6.50;;
11681;SDS011;5897;42.640;23.310;2023-12-28T05:52:39;6.27;;;4.80;;
11681;SDS011;5897;42.640;23.310;2023-12-28T05:55:06;5.75;;;4.47;;
11681;SDS011;5897;42.640;23.310;2023-12-28T05:57:40;5.82;;;4.78;;
11681;SDS011;5897;42.640;23.310;2023-12-28T06:00:07;7.18;;;5.43;;
11681;SDS011;5897;42.640;23.310;2023-12-28T06:02:48;6.03;;;4.90;;
11681;SDS011;5897;42.640;23.310;2023-12-28T06:05:26;8.73;;;6.27;;
11681;SDS011;5897;42.640;23.310;2023-12-28T06:07:52;8.88;;;7.20;;
11681;SDS011;5897;42.640;23.310;2023-12-28T06:10:19;6.82;;;5.75;;
11681;SDS011;5897;42.640;23.310;2023-12-28T06:12:50;10.07;;;6.72;;
11681;SDS011;5897;42.640;23.310;2023-12-28T06:15:17;7.13;;;5.93;;
11681;SDS011;5897;42.640;23.310;2023-12-28T06:17:43;8.27;;;6.72;;
11681;SDS011;5897;42.640;23.310;2023-12-28T06:20:12;9.73;;;7.37;;
11681;SDS011;5897;42.640;23.310;2023-12-28T06:22:39;9.00;;;7.38;;
11681;SDS011;5897;42.640;23.310;2023-12-28T06:25:06;10.85;;;8.50;;
11681;SDS011;5897;42.640;23.310;2023-12-28T06:27:33;11.80;;;9.00;;
11681;SDS011;5897;42.640;23.310;2023-12-28T06:30:04;14.13;;;9.00;;
11681;SDS011;5897;42.640;23.310;2023-12-28T06:32:31;13.98;;;9.55;;
11681;SDS011;5897;42.640;23.310;2023-12-28T06:35:10;12.60;;;9.60;;
11681;SDS011;5897;42.640;23.310;2023-12-28T06:37:37;14.82;;;9.50;;
11681;SDS011;5897;42.640;23.310;2023-12-28T06:40:09;14.90;;;10.18;;
11681;SDS011;5897;42.640;23.310;2023-12-28T06:42:39;14.75;;;10.88;;
11681;SDS011;5897;42.640;23.310;2023-12-28T06:45:13;13.45;;;9.88;;
11681;SDS011;5897;42.640;23.310;2023-12-28T06:47:40;13.63;;;10.60;;
11681;SDS011;5897;42.640;23.310;2023-12-28T06:50:14;15.18;;;10.25;;
11681;SDS011;5897;42.640;23.310;2023-12-28T06:52:44;13.60;;;10.57;;
11681;SDS011;5897;42.640;23.310;2023-12-28T06:55:14;14.27;;;10.10;;
11681;SDS011;5897;42.640;23.310;2023-12-28T06:57:42;12.60;;;10.30;;
11681;SDS011;5897;42.640;23.310;2023-12-28T07:00:20;16.95;;;12.55;;
11681;SDS011;5897;42.640;23.310;2023-12-28T07:02:52;15.65;;;11.93;;
11681;SDS011;5897;42.640;23.310;2023-12-28T07:05:23;16.33;;;13.00;;
11681;SDS011;5897;42.640;23.310;2023-12-28T07:07:53;17.73;;;12.80;;
11681;SDS011;5897;42.640;23.310;2023-12-28T07:10:19;15.63;;;11.80;;
11681;SDS011;5897;42.640;23.310;2023-12-28T07:12:49;17.42;;;12.40;;
11681;SDS011;5897;42.640;23.310;2023-12-28T07:15:15;18.10;;;12.52;;
11681;SDS011;5897;42.640;23.310;2023-12-28T07:17:49;14.93;;;11.90;;
11681;SDS011;5897;42.640;23.310;2023-12-28T07:20:21;16.65;;;13.48;;
11681;SDS011;5897;42.640;23.310;2023-12-28T07:22:48;17.98;;;12.40;;
11681;SDS011;5897;42.640;23.310;2023-12-28T07:25:17;17.00;;;13.95;;
11681;SDS011;5897;42.640;23.310;2023-12-28T07:27:48;18.33;;;12.35;;
11681;SDS011;5897;42.640;23.310;2023-12-28T07:30:21;18.65;;;14.25;;
11681;SDS011;5897;42.640;23.310;2023-12-28T07:32:49;19.20;;;14.38;;
11681;SDS011;5897;42.640;23.310;2023-12-28T07:35:18;25.63;;;16.25;;
11681;SDS011;5897;42.640;23.310;2023-12-28T07:37:51;20.77;;;15.68;;
11681;SDS011;5897;42.640;23.310;2023-12-28T07:40:18;24.35;;;16.02;;
11681;SDS011;5897;42.640;23.310;2023-12-28T07:42:48;22.63;;;15.98;;
11681;SDS011;5897;42.640;23.310;2023-12-28T07:45:15;20.70;;;15.15;;
11681;SDS011;5897;42.640;23.310;2023-12-28T07:47:45;24.33;;;15.82;;
11681;SDS011;5897;42.640;23.310;2023-12-28T07:50:21;21.70;;;15.80;;
11681;SDS011;5897;42.640;23.310;2023-12-28T07:52:53;21.45;;;16.00;;
11681;SDS011;5897;42.640;23.310;2023-12-28T07:55:25;21.75;;;16.13;;
11681;SDS011;5897;42.640;23.310;2023-12-28T07:57:57;20.33;;;16.05;;
11681;SDS011;5897;42.640;23.310;2023-12-28T08:00:24;21.33;;;16.27;;
11681;SDS011;5897;42.640;23.310;2023-12-28T08:02:53;21.40;;;16.70;;
11681;SDS011;5897;42.640;23.310;2023-12-28T08:05:32;23.48;;;16.73;;
11681;SDS011;5897;42.640;23.310;2023-12-28T08:07:58;23.33;;;16.25;;
11681;SDS011;5897;42.640;23.310;2023-12-28T08:10:25;21.90;;;17.27;;
11681;SDS011;5897;42.640;23.310;2023-12-28T08:12:57;21.42;;;16.38;;
11681;SDS011;5897;42.640;23.310;2023-12-28T08:15:24;22.55;;;16.60;;
11681;SDS011;5897;42.640;23.310;2023-12-28T08:17:51;21.60;;;16.20;;
11681;SDS011;5897;42.640;23.310;2023-12-28T08:20:17;19.73;;;15.73;;
11681;SDS011;5897;42.640;23.310;2023-12-28T08:22:52;21.40;;;15.57;;
11681;SDS011;5897;42.640;23.310;2023-12-28T08:25:21;22.15;;;16.27;;
11681;SDS011;5897;42.640;23.310;2023-12-28T08:27:48;23.85;;;15.77;;
11681;SDS011;5897;42.640;23.310;2023-12-28T08:30:14;21.63;;;16.05;;
11681;SDS011;5897;42.640;23.310;2023-12-28T08:32:41;19.60;;;16.35;;
11681;SDS011;5897;42.640;23.310;2023-12-28T08:35:11;23.42;;;15.90;;
11681;SDS011;5897;42.640;23.310;2023-12-28T08:37:37;23.13;;;16.55;;
11681;SDS011;5897;42.640;23.310;2023-12-28T08:40:09;21.35;;;16.00;;
11681;SDS011;5897;42.640;23.310;2023-12-28T08:42:39;18.63;;;15.18;;
11681;SDS011;5897;42.640;23.310;2023-12-28T08:45:10;21.30;;;14.80;;
11681;SDS011;5897;42.640;23.310;2023-12-28T08:47:37;21.70;;;15.30;;
11681;SDS011;5897;42.640;23.310;2023-12-28T08:50:06;20.25;;;15.75;;
11681;SDS011;5897;42.640;23.310;2023-12-28T08:52:37;25.27;;;16.05;;
11681;SDS011;5897;42.640;23.310;2023-12-28T08:55:04;22.25;;;16.08;;
11681;SDS011;5897;42.640;23.310;2023-12-28T08:57:33;18.92;;;15.20;;
11681;SDS011;5897;42.640;23.310;2023-12-28T08:59:59;20.67;;;16.05;;
11681;SDS011;5897;42.640;23.310;2023-12-28T09:02:28;21.52;;;15.57;;
11681;SDS011;5897;42.640;23.310;2023-12-28T09:05:11;21.92;;;15.60;;
11681;SDS011;5897;42.640;23.310;2023-12-28T09:07:39;21.60;;;14.55;;
11681;SDS011;5897;42.640;23.310;2023-12-28T09:10:11;26.08;;;16.23;;
11681;SDS011;5897;42.640;23.310;2023-12-28T09:12:44;21.08;;;15.70;;
11681;SDS011;5897;42.640;23.310;2023-12-28T09:15:12;25.48;;;15.77;;
11681;SDS011;5897;42.640;23.310;2023-12-28T09:17:39;24.55;;;16.38;;
11681;SDS011;5897;42.640;23.310;2023-12-28T09:20:11;19.90;;;16.05;;
11681;SDS011;5897;42.640;23.310;2023-12-28T09:22:43;22.45;;;16.60;;
11681;SDS011;5897;42.640;23.310;2023-12-28T09:25:18;23.38;;;16.40;;
11681;SDS011;5897;42.640;23.310;2023-12-28T09:27:46;22.27;;;15.57;;
11681;SDS011;5897;42.640;23.310;2023-12-28T09:30:13;22.25;;;16.40;;
11681;SDS011;5897;42.640;23.310;2023-12-28T09:32:43;25.70;;;16.15;;
11681;SDS011;5897;42.640;23.310;2023-12-28T09:35:12;22.38;;;16.85;;
11681;SDS011;5897;42.640;23.310;2023-12-28T09:37:39;25.88;;;16.63;;
11681;SDS011;5897;42.640;23.310;2023-12-28T09:40:08;19.23;;;16.05;;
11681;SDS011;5897;42.640;23.310;2023-12-28T09:42:40;21.17;;;15.32;;
11681;SDS011;5897;42.640;23.310;2023-12-28T09:45:15;22.58;;;17.30;;
11681;SDS011;5897;42.640;23.310;2023-12-28T09:47:45;29.85;;;21.50;;
11681;SDS011;5897;42.640;23.310;2023-12-28T09:50:15;19.38;;;15.20;;
11681;SDS011;5897;42.640;23.310;2023-12-28T09:52:47;19.42;;;14.25;;
11681;SDS011;5897;42.640;23.310;2023-12-28T09:55:19;39.58;;;27.08;;
11681;SDS011;5897;42.640;23.310;2023-12-28T09:57:50;28.70;;;20.10;;
11681;SDS011;5897;42.640;23.310;2023-12-28T10:00:23;22.95;;;14.63;;
11681;SDS011;5897;42.640;23.310;2023-12-28T10:02:55;21.83;;;13.32;;
11681;SDS011;5897;42.640;23.310;2023-12-28T10:05:24;15.55;;;12.63;;
11681;SDS011;5897;42.640;23.310;2023-12-28T10:07:55;13.55;;;11.15;;
11681;SDS011;5897;42.640;23.310;2023-12-28T10:10:30;16.83;;;10.90;;
11681;SDS011;5897;42.640;23.310;2023-12-28T10:12:57;15.23;;;11.40;;
11681;SDS011;5897;42.640;23.310;2023-12-28T10:15:27;16.50;;;12.18;;
11681;SDS011;5897;42.640;23.310;2023-12-28T10:17:54;15.85;;;11.25;;
11681;SDS011;5897;42.640;23.310;2023-12-28T10:20:26;14.82;;;10.35;;
11681;SDS011;5897;42.640;23.310;2023-12-28T10:23:05;14.88;;;10.88;;
11681;SDS011;5897;42.640;23.310;2023-12-28T10:25:35;14.38;;;10.68;;
11681;SDS011;5897;42.640;23.310;2023-12-28T10:28:07;20.67;;;11.23;;
11681;SDS011;5897;42.640;23.310;2023-12-28T10:30:35;17.13;;;10.82;;
11681;SDS011;5897;42.640;23.310;2023-12-28T10:33:04;18.08;;;12.02;;
11681;SDS011;5897;42.640;23.310;2023-12-28T10:35:31;15.93;;;11.40;;
11681;SDS011;5897;42.640;23.310;2023-12-28T10:38:00;19.67;;;12.15;;
11681;SDS011;5897;42.640;23.310;2023-12-28T10:40:31;18.20;;;14.00;;
11681;SDS011;5897;42.640;23.310;2023-12-28T10:42:58;18.85;;;14.13;;
11681;SDS011;5897;42.640;23.310;2023-12-28T10:45:28;21.02;;;15.10;;
11681;SDS011;5897;42.640;23.310;2023-12-28T10:48:04;18.00;;;14.00;;
11681;SDS011;5897;42.640;23.310;2023-12-28T10:50:35;15.63;;;13.77;;
11681;SDS011;5897;42.640;23.310;2023-12-28T10:53:08;24.55;;;18.90;;
11681;SDS011;5897;42.640;23.310;2023-12-28T10:55:44;21.10;;;18.05;;
11681;SDS011;5897;42.640;23.310;2023-12-28T10:58:26;20.17;;;14.02;;
11681;SDS011;5897;42.640;23.310;2023-12-28T11:01:05;20.33;;;14.68;;
11681;SDS011;5897;42.640;23.310;2023-12-28T11:03:38;19.63;;;14.88;;
11681;SDS011;5897;42.640;23.310;2023-12-28T11:06:13;18.67;;;14.60;;
11681;SDS011;5897;42.640;23.310;2023-12-28T11:08:48;22.02;;;15.25;;
11681;SDS011;5897;42.640;23.310;2023-12-28T11:11:22;21.08;;;17.10;;
11681;SDS011;5897;42.640;23.310;2023-12-28T11:13:59;25.77;;;16.27;;
11681;SDS011;5897;42.640;23.310;2023-12-28T11:16:27;19.88;;;15.75;;
11681;SDS011;5897;42.640;23.310;2023-12-28T11:19:00;23.77;;;16.55;;
11681;SDS011;5897;42.640;23.310;2023-12-28T11:21:33;21.17;;;16.70;;
11681;SDS011;5897;42.640;23.310;2023-12-28T11:24:00;22.20;;;17.98;;
11681;SDS011;5897;42.640;23.310;2023-12-28T11:26:27;25.05;;;17.67;;
11681;SDS011;5897;42.640;23.310;2023-12-28T11:28:59;25.92;;;17.67;;
11681;SDS011;5897;42.640;23.310;2023-12-28T11:31:31;24.92;;;18.05;;
11681;SDS011;5897;42.640;23.310;2023-12-28T11:34:03;22.40;;;17.58;;
11681;SDS011;5897;42.640;23.310;2023-12-28T11:36:33;31.23;;;26.35;;
11681;SDS011;5897;42.640;23.310;2023-12-28T11:39:05;21.90;;;16.52;;
11681;SDS011;5897;42.640;23.310;2023-12-28T11:41:33;17.75;;;15.30;;
11681;SDS011;5897;42.640;23.310;2023-12-28T11:44:02;19.45;;;14.30;;
11681;SDS011;5897;42.640;23.310;2023-12-28T11:46:36;22.58;;;14.98;;
11681;SDS011;5897;42.640;23.310;2023-12-28T11:49:09;20.52;;;14.60;;
11681;SDS011;5897;42.640;23.310;2023-12-28T11:51:41;18.02;;;13.40;;
11681;SDS011;5897;42.640;23.310;2023-12-28T11:54:11;17.70;;;12.75;;
11681;SDS011;5897;42.640;23.310;2023-12-28T11:56:40;15.32;;;12.13;;
11681;SDS011;5897;42.640;23.310;2023-12-28T11:59:10;13.35;;;10.63;;
11681;SDS011;5897;42.640;23.310;2023-12-28T12:01:36;13.77;;;9.85;;
11681;SDS011;5897;42.640;23.310;2023-12-28T12:04:03;11.73;;;9.00;;
11681;SDS011;5897;42.640;23.310;2023-12-28T12:06:31;15.20;;;10.45;;
11681;SDS011;5897;42.640;23.310;2023-12-28T12:09:01;15.90;;;10.98;;
11681;SDS011;5897;42.640;23.310;2023-12-28T12:11:33;14.85;;;10.10;;
11681;SDS011;5897;42.640;23.310;2023-12-28T12:13:59;15.23;;;10.45;;
11681;SDS011;5897;42.640;23.310;2023-12-28T12:16:26;13.05;;;10.35;;
11681;SDS011;5897;42.640;23.310;2023-12-28T12:18:53;13.70;;;11.10;;
11681;SDS011;5897;42.640;23.310;2023-12-28T12:21:23;17.52;;;11.30;;
11681;SDS011;5897;42.640;23.310;2023-12-28T12:23:52;21.92;;;14.60;;
11681;SDS011;5897;42.640;23.310;2023-12-28T12:26:21;17.67;;;12.50;;
11681;SDS011;5897;42.640;23.310;2023-12-28T12:28:48;23.58;;;20.38;;
11681;SDS011;5897;42.640;23.310;2023-12-28T12:31:15;17.77;;;11.75;;
11681;SDS011;5897;42.640;23.310;2023-12-28T12:33:45;15.23;;;11.75;;
11681;SDS011;5897;42.640;23.310;2023-12-28T12:36:22;15.30;;;12.00;;
11681;SDS011;5897;42.640;23.310;2023-12-28T12:38:50;18.00;;;12.10;;
11681;SDS011;5897;42.640;23.310;2023-12-28T12:41:17;18.55;;;11.77;;
11681;SDS011;5897;42.640;23.310;2023-12-28T12:43:46;15.77;;;11.93;;
11681;SDS011;5897;42.640;23.310;2023-12-28T12:46:16;15.50;;;12.32;;
11681;SDS011;5897;42.640;23.310;2023-12-28T12:48:53;17.40;;;12.57;;
11681;SDS011;5897;42.640;23.310;2023-12-28T12:51:23;16.48;;;12.70;;
11681;SDS011;5897;42.640;23.310;2023-12-28T12:53:56;20.35;;;13.80;;
11681;SDS011;5897;42.640;23.310;2023-12-28T12:56:29;18.40;;;13.35;;
11681;SDS011;5897;42.640;23.310;2023-12-28T12:59:01;17.23;;;13.77;;
11681;SDS011;5897;42.640;23.310;2023-12-28T13:01:37;17.92;;;13.38;;
11681;SDS011;5897;42.640;23.310;2023-12-28T13:04:13;20.27;;;16.48;;
11681;SDS011;5897;42.640;23.310;2023-12-28T13:06:45;19.27;;;15.73;;
11681;SDS011;5897;42.640;23.310;2023-12-28T13:09:18;19.95;;;15.63;;
11681;SDS011;5897;42.640;23.310;2023-12-28T13:12:01;20.38;;;16.77;;
11681;SDS011;5897;42.640;23.310;2023-12-28T13:14:28;24.25;;;17.95;;
11681;SDS011;5897;42.640;23.310;2023-12-28T13:16:56;21.88;;;17.60;;
11681;SDS011;5897;42.640;23.310;2023-12-28T13:19:34;21.42;;;16.05;;
11681;SDS011;5897;42.640;23.310;2023-12-28T13:22:01;26.40;;;22.13;;
11681;SDS011;5897;42.640;23.310;2023-12-28T13:24:34;24.42;;;18.30;;
11681;SDS011;5897;42.640;23.310;2023-12-28T13:27:06;28.60;;;17.02;;
11681;SDS011;5897;42.640;23.310;2023-12-28T13:29:35;29.00;;;15.20;;
11681;SDS011;5897;42.640;23.310;2023-12-28T13:32:10;22.60;;;14.65;;
11681;SDS011;5897;42.640;23.310;2023-12-28T13:34:40;30.50;;;17.33;;
11681;SDS011;5897;42.640;23.310;2023-12-28T13:37:10;29.45;;;17.73;;
11681;SDS011;5897;42.640;23.310;2023-12-28T13:39:44;27.00;;;17.50;;
11681;SDS011;5897;42.640;23.310;2023-12-28T13:42:13;30.73;;;18.77;;
11681;SDS011;5897;42.640;23.310;2023-12-28T13:44:41;30.20;;;18.90;;
11681;SDS011;5897;42.640;23.310;2023-12-28T13:47:10;29.00;;;17.75;;
11681;SDS011;5897;42.640;23.310;2023-12-28T13:49:37;26.17;;;17.15;;
11681;SDS011;5897;42.640;23.310;2023-12-28T13:52:04;23.25;;;15.55;;
11681;SDS011;5897;42.640;23.310;2023-12-28T13:54:33;24.95;;;15.30;;
11681;SDS011;5897;42.640;23.310;2023-12-28T13:57:06;36.50;;;22.52;;
11681;SDS011;5897;42.640;23.310;2023-12-28T13:59:33;34.42;;;23.10;;
11681;SDS011;5897;42.640;23.310;2023-12-28T14:02:01;36.22;;;22.35;;
11681;SDS011;5897;42.640;23.310;2023-12-28T14:04:28;32.17;;;20.70;;
11681;SDS011;5897;42.640;23.310;2023-12-28T14:06:55;38.33;;;27.15;;
11681;SDS011;5897;42.640;23.310;2023-12-28T14:09:21;59.60;;;39.35;;
11681;SDS011;5897;42.640;23.310;2023-12-28T14:11:53;109.68;;;66.57;;
11681;SDS011;5897;42.640;23.310;2023-12-28T14:14:23;129.63;;;72.60;;
11681;SDS011;5897;42.640;23.310;2023-12-28T14:16:49;57.92;;;36.05;;
11681;SDS011;5897;42.640;23.310;2023-12-28T14:19:16;31.98;;;19.85;;
11681;SDS011;5897;42.640;23.310;2023-12-28T14:21:44;27.83;;;18.63;;
11681;SDS011;5897;42.640;23.310;2023-12-28T14:24:12;21.50;;;13.68;;
11681;SDS011;5897;42.640;23.310;2023-12-28T14:26:40;18.17;;;11.02;;
11681;SDS011;5897;42.640;23.310;2023-12-28T14:29:10;22.60;;;12.40;;
11681;SDS011;5897;42.640;23.310;2023-12-28T14:31:39;15.80;;;7.90;;
11681;SDS011;5897;42.640;23.310;2023-12-28T14:34:06;14.73;;;7.90;;
11681;SDS011;5897;42.640;23.310;2023-12-28T14:36:34;21.70;;;7.88;;
11681;SDS011;5897;42.640;23.310;2023-12-28T14:39:05;21.65;;;11.48;;
11681;SDS011;5897;42.640;23.310;2023-12-28T14:41:32;19.10;;;8.65;;
11681;SDS011;5897;42.640;23.310;2023-12-28T14:44:05;16.30;;;7.85;;